San Francisco, California
Current Conditions -  °F | °C
As of 12:05 AM on Sunday 26 Oct 2014 (Local Time) from KSFO Reporting Station
Overcast Overcast  
Wind Chill: 63°   Ceiling: 9000
Heat Index: 63°   Visibility: 10mi
Dew Point: 57°   Wind: 5mph
Humidity: 82%   Direction: 240°WSW
Pressure: 30.15"   Gusts: NA
Location:  37.78°N, 122.42°W
Report Text: KSFO 260705Z 24004KT 10SM SCT018 OVC090 17/14 A3015 RMK AO2 $
Loading
Personal Weather Stations






























Interactive Weather Map
Tropical Storm Tracking
New forecast layout! Learn more

10-Day Weather Forecast

Advertisements
Track Severe Weather on mobile